createdAt,value
2019-02-20T00:00:21.657Z,19.32
2019-02-20T00:02:50.074Z,18.80
2019-02-20T00:05:18.442Z,18.80
2019-02-20T00:07:46.850Z,18.95
2019-02-20T00:10:15.230Z,17.07
2019-02-20T00:12:43.646Z,18.60
2019-02-20T00:15:12.030Z,16.32
2019-02-20T00:17:40.436Z,17.90
2019-02-20T00:20:08.853Z,18.32
2019-02-20T00:22:40.293Z,17.55
2019-02-20T00:25:07.280Z,17.25
2019-02-20T00:27:35.695Z,17.85
2019-02-20T00:30:08.707Z,16.75
2019-02-20T00:32:37.130Z,17.55
2019-02-20T00:35:06.272Z,18.62
2019-02-20T00:37:34.763Z,19.20
2019-02-20T00:40:03.928Z,18.02
2019-02-20T00:42:32.339Z,18.30
2019-02-20T00:45:02.385Z,19.10
2019-02-20T00:47:32.397Z,18.37
2019-02-20T00:50:01.103Z,17.42
2019-02-20T00:52:31.141Z,16.55
2019-02-20T00:54:59.566Z,17.37
2019-02-20T00:57:27.932Z,17.12
2019-02-20T00:59:56.311Z,17.25
2019-02-20T01:02:24.729Z,17.30
2019-02-20T01:04:53.124Z,16.82
2019-02-20T01:07:21.513Z,17.75
2019-02-20T01:09:49.921Z,17.52
2019-02-20T01:12:18.329Z,16.80
2019-02-20T01:14:46.751Z,17.50
2019-02-20T01:17:15.311Z,17.73
2019-02-20T01:19:43.723Z,17.52
2019-02-20T01:22:12.122Z,18.27
2019-02-20T01:24:40.505Z,18.80
2019-02-20T01:27:08.912Z,18.35
2019-02-20T01:29:37.329Z,17.87
2019-02-20T01:32:05.739Z,17.27
2019-02-20T01:34:34.118Z,18.32
2019-02-20T01:37:02.535Z,17.60
2019-02-20T01:39:30.904Z,17.85
2019-02-20T01:41:59.311Z,17.32
2019-02-20T01:44:27.815Z,18.40
2019-02-20T01:46:56.180Z,18.20
2019-02-20T01:49:24.596Z,19.90
2019-02-20T01:51:53.018Z,19.52
2019-02-20T01:54:21.420Z,18.80
2019-02-20T01:56:49.825Z,18.70
2019-02-20T01:59:18.233Z,18.95
2019-02-20T02:01:46.620Z,18.23
2019-02-20T02:04:15.050Z,17.40
2019-02-20T02:06:43.441Z,17.17
2019-02-20T02:09:11.892Z,18.62
2019-02-20T02:11:40.302Z,17.82
2019-02-20T02:14:08.677Z,17.42
2019-02-20T02:16:37.079Z,17.23
2019-02-20T02:19:05.455Z,18.32
2019-02-20T02:21:33.867Z,17.23
2019-02-20T02:24:02.265Z,18.65
2019-02-20T02:26:30.668Z,19.75
2019-02-20T02:28:59.048Z,20.48
2019-02-20T02:31:27.451Z,19.15
2019-02-20T02:33:55.889Z,18.42
2019-02-20T02:36:24.260Z,19.52
2019-02-20T02:38:52.844Z,19.42
2019-02-20T02:41:21.201Z,19.17
2019-02-20T02:43:49.582Z,19.50
2019-02-20T02:46:17.987Z,18.87
2019-02-20T02:48:46.385Z,18.23
2019-02-20T02:51:14.783Z,17.60
2019-02-20T02:53:43.176Z,19.02
2019-02-20T02:56:11.566Z,17.92
2019-02-20T02:58:40.018Z,18.85
2019-02-20T03:01:08.398Z,18.67
2019-02-20T03:03:36.783Z,19.10
2019-02-20T03:06:05.164Z,18.32
2019-02-20T03:08:33.539Z,18.50
2019-02-20T03:11:01.956Z,19.25
2019-02-20T03:13:30.335Z,17.55
2019-02-20T03:15:58.720Z,18.32
2019-02-20T03:18:27.126Z,18.12
2019-02-20T03:20:55.509Z,17.60
2019-02-20T03:23:23.918Z,16.57
2019-02-20T03:25:52.337Z,16.82
2019-02-20T03:28:20.769Z,17.05
2019-02-20T03:30:49.149Z,15.83
2019-02-20T03:33:17.548Z,15.50
2019-02-20T03:35:45.960Z,14.28
2019-02-20T03:38:14.339Z,15.48
2019-02-20T03:40:42.762Z,15.85
2019-02-20T03:43:11.144Z,15.03
2019-02-20T03:45:39.554Z,15.48
2019-02-20T03:48:07.969Z,14.70
2019-02-20T03:50:36.350Z,14.90
2019-02-20T03:53:04.755Z,15.43
2019-02-20T03:55:33.167Z,15.38
2019-02-20T03:58:01.535Z,15.08
2019-02-20T04:00:29.970Z,15.35
2019-02-20T04:02:58.361Z,15.35
2019-02-20T04:05:26.786Z,14.15
2019-02-20T04:07:55.183Z,15.53
2019-02-20T04:10:23.607Z,14.55
2019-02-20T04:12:51.988Z,14.28
2019-02-20T04:15:20.363Z,14.60
2019-02-20T04:17:48.765Z,16.07
2019-02-20T04:20:17.156Z,16.27
2019-02-20T04:22:45.577Z,15.60
2019-02-20T04:25:13.975Z,17.12
2019-02-20T04:27:42.376Z,15.40
2019-02-20T04:30:11.135Z,16.20
2019-02-20T04:32:39.547Z,14.85
2019-02-20T04:35:07.942Z,15.68
2019-02-20T04:37:36.347Z,16.97
2019-02-20T04:40:06.105Z,16.30
2019-02-20T04:42:34.495Z,16.60
2019-02-20T04:45:02.866Z,15.90
2019-02-20T04:47:31.255Z,17.20
2019-02-20T04:49:59.644Z,15.95
2019-02-20T04:52:28.035Z,15.75
2019-02-20T04:54:56.443Z,17.87
2019-02-20T04:57:24.817Z,16.42
2019-02-20T04:59:53.226Z,17.55
2019-02-20T05:02:21.612Z,16.12
2019-02-20T05:04:50.016Z,16.35
2019-02-20T05:07:18.393Z,17.45
2019-02-20T05:09:46.796Z,17.32
2019-02-20T05:12:15.206Z,17.17
2019-02-20T05:14:43.647Z,17.50
2019-02-20T05:17:12.492Z,17.12
2019-02-20T05:19:40.937Z,17.27
2019-02-20T05:22:09.305Z,17.05
2019-02-20T05:24:37.717Z,16.97
2019-02-20T05:27:06.150Z,16.82
2019-02-20T05:29:34.516Z,17.30
2019-02-20T05:32:02.892Z,17.02
2019-02-20T05:34:31.294Z,17.65
2019-02-20T05:36:59.727Z,16.67
2019-02-20T05:39:28.120Z,16.93
2019-02-20T05:41:56.494Z,17.05
2019-02-20T05:44:24.942Z,15.53
2019-02-20T05:46:53.320Z,16.95
2019-02-20T05:49:21.763Z,17.15
2019-02-20T05:51:50.171Z,17.17
2019-02-20T05:54:18.600Z,15.70
2019-02-20T05:56:46.975Z,16.00
2019-02-20T05:59:15.355Z,16.05
2019-02-20T06:01:43.770Z,15.30
2019-02-20T06:04:12.246Z,14.50
2019-02-20T06:06:40.652Z,15.60
2019-02-20T06:09:09.027Z,14.45
2019-02-20T06:11:37.441Z,14.15
2019-02-20T06:14:05.823Z,15.32
2019-02-20T06:16:34.238Z,15.55
2019-02-20T06:19:02.616Z,14.47
2019-02-20T06:21:31.012Z,14.85
2019-02-20T06:23:59.393Z,15.23
2019-02-20T06:26:27.827Z,14.25
2019-02-20T06:28:56.228Z,14.80
2019-02-20T06:31:24.608Z,15.23
2019-02-20T06:33:53.049Z,15.25
2019-02-20T06:36:21.443Z,15.08
2019-02-20T06:38:49.823Z,16.48
2019-02-20T06:41:18.235Z,15.58
2019-02-20T06:43:48.038Z,16.02
2019-02-20T06:46:16.483Z,14.18
2019-02-20T06:48:44.870Z,15.38
2019-02-20T06:51:13.281Z,16.32
2019-02-20T06:53:41.681Z,16.57
2019-02-20T06:56:10.107Z,16.80
2019-02-20T06:58:38.464Z,16.65
2019-02-20T07:01:06.889Z,17.77
2019-02-20T07:03:35.291Z,16.67
2019-02-20T07:06:23.433Z,16.85
2019-02-20T07:09:11.866Z,17.05
2019-02-20T07:11:49.553Z,17.17
2019-02-20T07:14:37.520Z,16.15
2019-02-20T07:17:24.268Z,16.10
2019-02-20T07:19:55.922Z,16.93
2019-02-20T07:22:50.014Z,17.17
2019-02-20T07:25:30.807Z,17.05
2019-02-20T07:28:18.944Z,18.70
2019-02-20T07:30:47.326Z,18.20
2019-02-20T07:33:15.723Z,18.25
2019-02-20T07:35:44.110Z,17.87
2019-02-20T07:38:12.539Z,17.87
2019-02-20T07:40:40.914Z,17.65
2019-02-20T07:43:09.296Z,18.42
2019-02-20T07:45:37.695Z,19.10
2019-02-20T07:48:06.099Z,18.35
2019-02-20T07:50:34.475Z,20.57
2019-02-20T07:53:02.882Z,19.55
2019-02-20T07:55:31.281Z,19.27
2019-02-20T07:57:59.659Z,19.42
2019-02-20T08:00:28.043Z,19.37
2019-02-20T08:02:56.481Z,20.30
2019-02-20T08:05:24.850Z,20.48
2019-02-20T08:07:53.252Z,18.90
2019-02-20T08:10:21.715Z,18.95
2019-02-20T08:12:50.130Z,19.42
2019-02-20T08:15:18.514Z,20.95
2019-02-20T08:17:46.894Z,19.55
2019-02-20T08:20:15.297Z,19.32
2019-02-20T08:22:43.713Z,19.80
2019-02-20T08:25:12.089Z,18.00
2019-02-20T08:27:40.483Z,19.07
2019-02-20T08:30:11.814Z,18.07
2019-02-20T08:32:40.424Z,20.40
2019-02-20T08:35:10.554Z,16.25
2019-02-20T08:37:38.962Z,18.02
2019-02-20T08:40:13.222Z,19.23
2019-02-20T08:42:41.911Z,17.73
2019-02-20T08:45:11.365Z,17.27
2019-02-20T08:47:39.923Z,17.48
2019-02-20T08:50:11.125Z,16.35
2019-02-20T08:52:39.575Z,16.35
2019-02-20T08:55:10.095Z,14.55
2019-02-20T08:57:38.555Z,15.23
2019-02-20T09:00:13.797Z,15.00
2019-02-20T09:02:42.202Z,14.78
2019-02-20T09:05:14.258Z,13.90
2019-02-20T09:07:42.716Z,13.85
2019-02-20T09:10:12.378Z,13.10
2019-02-20T09:12:40.899Z,13.50
2019-02-20T09:15:11.935Z,13.35
2019-02-20T09:17:40.348Z,14.80
2019-02-20T09:20:11.472Z,11.85
2019-02-20T09:22:39.937Z,11.70
2019-02-20T09:25:19.249Z,10.55
2019-02-20T09:27:40.735Z,12.07
2019-02-20T09:30:16.096Z,10.53
2019-02-20T09:32:44.553Z,12.18
2019-02-20T09:35:13.168Z,11.50
2019-02-20T09:37:41.883Z,10.93
2019-02-20T09:40:17.982Z,10.80
2019-02-20T09:42:49.763Z,10.32
2019-02-20T09:45:19.820Z,9.33
2019-02-20T09:47:48.227Z,10.08
2019-02-20T09:50:16.725Z,9.28
2019-02-20T09:52:52.413Z,9.28
2019-02-20T09:55:21.000Z,8.85
2019-02-20T09:57:49.622Z,9.68
2019-02-20T10:00:19.536Z,7.95
2019-02-20T10:02:49.871Z,9.43
2019-02-20T10:05:18.035Z,9.48
2019-02-20T10:07:46.448Z,8.68
2019-02-20T10:10:14.845Z,8.80
2019-02-20T10:12:43.203Z,8.90
2019-02-20T10:15:17.465Z,8.03
2019-02-20T10:17:49.539Z,9.20
2019-02-20T10:20:17.622Z,9.23
2019-02-20T10:22:46.010Z,9.18
2019-02-20T10:25:14.494Z,8.70
2019-02-20T10:27:42.846Z,8.80
2019-02-20T10:30:14.542Z,7.87
2019-02-20T10:32:43.110Z,8.83
2019-02-20T10:35:11.506Z,8.80
2019-02-20T10:37:39.889Z,8.45
2019-02-20T10:40:12.091Z,8.33
2019-02-20T10:42:40.488Z,8.98
2019-02-20T10:45:11.270Z,9.53
2019-02-20T10:47:39.642Z,8.53
2019-02-20T10:50:11.079Z,8.00
2019-02-20T10:52:39.460Z,7.25
2019-02-20T10:55:09.229Z,7.53
2019-02-20T10:57:37.766Z,7.95
2019-02-20T11:00:23.611Z,8.35
2019-02-20T11:02:45.799Z,7.90
2019-02-20T11:05:14.185Z,8.03
2019-02-20T11:07:42.582Z,7.70
2019-02-20T11:10:10.960Z,7.30
2019-02-20T11:12:39.375Z,7.95
2019-02-20T11:15:08.239Z,7.42
2019-02-20T11:17:37.224Z,7.67
2019-02-20T11:20:10.874Z,7.45
2019-02-20T11:22:39.283Z,8.68
2019-02-20T11:25:12.641Z,7.58
2019-02-20T11:27:41.072Z,6.90
2019-02-20T11:30:18.926Z,7.60
2019-02-20T11:32:47.352Z,6.90
2019-02-20T11:35:15.774Z,7.12
2019-02-20T11:37:44.161Z,6.53
2019-02-20T11:40:13.644Z,6.87
2019-02-20T11:42:42.022Z,7.17
2019-02-20T11:45:15.007Z,6.60
2019-02-20T11:47:43.397Z,7.15
2019-02-20T11:50:11.796Z,6.90
2019-02-20T11:52:40.393Z,7.28
2019-02-20T11:55:13.052Z,7.33
2019-02-20T11:57:41.433Z,6.97
2019-02-20T12:00:18.083Z,7.47
2019-02-20T12:02:46.484Z,6.90
2019-02-20T12:05:14.862Z,6.55
2019-02-20T12:07:43.247Z,6.47
2019-02-20T12:10:16.542Z,6.80
2019-02-20T12:12:44.911Z,7.00
2019-02-20T12:15:13.286Z,6.55
2019-02-20T12:17:41.716Z,6.50
2019-02-20T12:20:10.151Z,7.78
2019-02-20T12:22:38.529Z,6.97
2019-02-20T12:25:08.742Z,6.33
2019-02-20T12:27:37.123Z,6.85
2019-02-20T12:30:07.756Z,6.22
2019-02-20T12:32:36.170Z,6.95
2019-02-20T12:35:06.093Z,11.03
2019-02-20T12:37:34.504Z,6.72
2019-02-20T12:40:02.879Z,6.40
2019-02-20T12:42:31.257Z,6.50
2019-02-20T12:44:59.640Z,6.35
2019-02-20T12:47:28.088Z,5.50
2019-02-20T12:49:56.493Z,6.15
2019-02-20T12:52:26.490Z,10.40
2019-02-20T12:54:55.095Z,6.40
2019-02-20T12:57:23.676Z,5.53
2019-02-20T12:59:52.056Z,5.87
2019-02-20T13:02:20.494Z,5.92
2019-02-20T13:04:48.890Z,5.95
2019-02-20T13:07:17.752Z,5.90
2019-02-20T13:09:46.208Z,5.53
2019-02-20T13:12:14.595Z,5.67
2019-02-20T13:14:42.964Z,5.60
2019-02-20T13:17:11.398Z,5.12
2019-02-20T13:19:39.752Z,4.30
2019-02-20T13:22:08.151Z,4.67
2019-02-20T13:24:36.527Z,5.45
2019-02-20T13:27:07.878Z,5.40
2019-02-20T13:29:35.001Z,5.40
2019-02-20T13:32:03.378Z,5.58
2019-02-20T13:34:31.780Z,5.53
2019-02-20T13:37:00.190Z,5.08
2019-02-20T13:39:28.567Z,5.17
2019-02-20T13:41:57.050Z,5.35
2019-02-20T13:44:25.425Z,5.40
2019-02-20T13:46:54.210Z,6.00
2019-02-20T13:49:22.592Z,5.20
2019-02-20T13:51:50.995Z,5.33
2019-02-20T13:54:19.449Z,5.92
2019-02-20T13:56:47.870Z,5.62
2019-02-20T13:59:16.283Z,5.60
2019-02-20T14:01:45.681Z,5.83
2019-02-20T14:04:14.473Z,5.33
2019-02-20T14:06:42.844Z,6.10
2019-02-20T14:09:11.591Z,6.47
2019-02-20T14:11:40.351Z,6.70
2019-02-20T14:14:09.086Z,6.45
2019-02-20T14:16:37.587Z,6.65
2019-02-20T14:19:05.995Z,6.15
2019-02-20T14:21:34.681Z,6.42
2019-02-20T14:24:03.048Z,6.40
2019-02-20T14:26:31.466Z,7.90
2019-02-20T14:28:59.866Z,6.87
2019-02-20T14:31:28.294Z,7.08
2019-02-20T14:33:56.655Z,7.20
2019-02-20T14:36:25.205Z,7.05
2019-02-20T14:38:53.634Z,7.12
2019-02-20T14:41:22.035Z,7.17
2019-02-20T14:43:50.456Z,6.97
2019-02-20T14:46:18.829Z,7.03
2019-02-20T14:48:52.843Z,6.75
2019-02-20T14:51:23.958Z,7.45
2019-02-20T14:53:54.192Z,7.30
2019-02-20T14:56:22.400Z,7.55
2019-02-20T14:58:50.776Z,8.83
2019-02-20T15:01:19.145Z,7.62
2019-02-20T15:03:47.548Z,8.35
2019-02-20T15:06:16.551Z,7.22
2019-02-20T15:08:45.328Z,6.95
2019-02-20T15:11:13.710Z,7.87
2019-02-20T15:13:42.263Z,7.30
2019-02-20T15:16:10.666Z,7.37
2019-02-20T15:18:39.158Z,8.83
2019-02-20T15:21:10.095Z,7.78
2019-02-20T15:23:38.476Z,8.65
2019-02-20T15:26:06.975Z,9.28
2019-02-20T15:28:35.371Z,8.98
2019-02-20T15:31:03.777Z,7.40
2019-02-20T15:33:32.182Z,8.73
2019-02-20T15:36:00.599Z,7.95
2019-02-20T15:38:31.808Z,8.28
2019-02-20T15:41:00.582Z,7.53
2019-02-20T15:43:28.975Z,7.53
2019-02-20T15:45:58.997Z,8.48
2019-02-20T15:48:27.394Z,8.55
2019-02-20T15:50:55.887Z,8.28
2019-02-20T15:53:24.257Z,8.35
2019-02-20T15:55:52.645Z,8.38
2019-02-20T15:58:21.363Z,9.03
2019-02-20T16:00:49.739Z,9.15
2019-02-20T16:03:18.115Z,9.70
2019-02-20T16:05:46.527Z,9.05
2019-02-20T16:08:14.937Z,10.05
2019-02-20T16:10:43.420Z,9.70
2019-02-20T16:13:11.809Z,10.15
2019-02-20T16:15:40.420Z,10.20
2019-02-20T16:18:08.799Z,11.03
2019-02-20T16:20:37.177Z,25.15
2019-02-20T16:23:05.552Z,10.90
2019-02-20T16:25:33.961Z,14.18
2019-02-20T16:28:02.339Z,10.50
2019-02-20T16:30:30.750Z,12.18
2019-02-20T16:33:00.758Z,12.25
2019-02-20T16:35:29.358Z,12.35
2019-02-20T16:37:57.771Z,12.18
2019-02-20T16:40:26.140Z,11.40
2019-02-20T16:42:54.522Z,12.15
2019-02-20T16:45:24.466Z,12.37
2019-02-20T16:47:53.255Z,14.53
2019-02-20T16:50:21.742Z,12.93
2019-02-20T16:52:50.110Z,13.68
2019-02-20T16:55:19.784Z,13.35
2019-02-20T16:57:56.209Z,13.03
2019-02-20T17:00:21.254Z,15.20
2019-02-20T17:02:50.052Z,13.30
2019-02-20T17:05:18.425Z,14.35
2019-02-20T17:07:46.809Z,13.75
2019-02-20T17:10:15.655Z,13.08
2019-02-20T17:12:44.037Z,14.63
2019-02-20T17:15:13.783Z,13.98
2019-02-20T17:17:42.211Z,14.83
2019-02-20T17:20:13.041Z,14.15
2019-02-20T17:22:41.437Z,14.05
2019-02-20T17:25:11.595Z,13.70
2019-02-20T17:27:39.975Z,13.62
2019-02-20T17:30:13.579Z,18.25
2019-02-20T17:32:42.020Z,26.52
2019-02-20T17:35:10.792Z,15.32
2019-02-20T17:37:39.204Z,15.68
2019-02-20T17:40:11.458Z,17.23
2019-02-20T17:42:39.934Z,16.52
2019-02-20T17:45:17.416Z,20.23
2019-02-20T17:47:46.280Z,22.87
2019-02-20T17:50:19.424Z,15.95
2019-02-20T17:52:48.020Z,28.75
2019-02-20T17:55:16.434Z,16.93
2019-02-20T17:57:44.815Z,16.52
2019-02-20T18:00:14.955Z,17.48
2019-02-20T18:02:43.356Z,17.23
2019-02-20T18:05:13.663Z,18.30
2019-02-20T18:07:48.615Z,19.00
2019-02-20T18:10:13.592Z,18.77
2019-02-20T18:12:47.192Z,18.42
2019-02-20T18:15:15.096Z,17.48
2019-02-20T18:17:46.481Z,17.75
2019-02-20T18:20:14.863Z,17.55
2019-02-20T18:22:46.125Z,17.50
2019-02-20T18:25:14.565Z,17.90
2019-02-20T18:27:42.991Z,17.62
2019-02-20T18:30:15.751Z,16.80
2019-02-20T18:32:44.193Z,17.73
2019-02-20T18:35:17.857Z,18.82
2019-02-20T18:37:47.903Z,18.40
2019-02-20T18:40:17.322Z,19.17
2019-02-20T18:42:48.758Z,19.40
2019-02-20T18:45:41.869Z,19.15
2019-02-20T18:48:09.290Z,20.25
2019-02-20T18:50:39.324Z,17.87
2019-02-20T18:53:07.708Z,18.87
2019-02-20T18:55:43.607Z,18.05
2019-02-20T18:58:12.917Z,19.12
2019-02-20T19:03:39.323Z,18.23
2019-02-20T19:06:08.891Z,18.92
2019-02-20T19:08:48.691Z,19.30
2019-02-20T19:11:35.677Z,18.00
2019-02-20T19:14:14.992Z,22.95
2019-02-20T19:17:15.365Z,19.67
2019-02-20T19:19:59.047Z,21.57
2019-02-20T19:22:36.530Z,20.62
2019-02-20T19:25:23.279Z,21.68
2019-02-20T19:28:04.024Z,21.17
2019-02-20T19:30:58.677Z,20.45
2019-02-20T19:34:03.993Z,21.07
2019-02-20T19:36:44.540Z,22.27
2019-02-20T19:39:36.844Z,22.70
2019-02-20T19:42:26.048Z,23.05
2019-02-20T19:45:00.612Z,23.15
2019-02-20T19:47:38.033Z,22.02
2019-02-20T19:50:12.307Z,21.07
2019-02-20T19:53:11.917Z,22.95
2019-02-20T19:55:43.544Z,23.22
2019-02-20T19:58:33.540Z,23.07
2019-02-20T20:01:17.534Z,22.05
2019-02-20T20:04:01.316Z,21.87
2019-02-20T20:06:52.676Z,22.40
2019-02-20T20:09:32.503Z,22.50
2019-02-20T20:12:13.250Z,23.52
2019-02-20T20:14:56.610Z,23.38
2019-02-20T20:17:40.323Z,23.50
2019-02-20T20:20:45.720Z,23.52
2019-02-20T20:23:36.857Z,25.48
2019-02-20T20:26:20.481Z,24.72
2019-02-20T20:29:14.638Z,25.10
2019-02-20T20:31:55.390Z,24.35
2019-02-20T20:34:46.323Z,25.23
2019-02-20T20:37:23.817Z,24.20
2019-02-20T20:40:04.485Z,23.12
2019-02-20T20:42:45.141Z,23.42
2019-02-20T20:45:33.411Z,22.80
2019-02-20T20:48:12.157Z,28.65
2019-02-20T20:51:03.778Z,34.83
2019-02-20T20:53:47.365Z,31.65
2019-02-20T20:56:40.441Z,28.92
2019-02-20T20:59:24.190Z,23.62
2019-02-20T21:01:58.582Z,24.80
2019-02-20T21:04:32.912Z,27.05
2019-02-20T21:07:10.280Z,23.95
2019-02-20T21:09:54.041Z,24.60
2019-02-20T21:12:36.951Z,23.67
2019-02-20T21:15:11.421Z,25.52
2019-02-20T21:18:08.601Z,23.65
2019-02-20T21:20:45.916Z,23.00
2019-02-20T21:23:19.742Z,20.57
2019-02-20T21:26:12.111Z,19.62
2019-02-20T21:28:46.499Z,20.88
2019-02-20T21:31:32.438Z,22.52
2019-02-20T21:34:25.595Z,22.35
2019-02-20T21:36:59.678Z,21.68
2019-02-20T21:39:37.040Z,19.77
2019-02-20T21:42:23.607Z,20.40
2019-02-20T21:44:55.296Z,20.02
2019-02-20T21:47:45.784Z,20.32
2019-02-20T21:50:20.240Z,21.52
2019-02-20T21:55:33.689Z,19.48
2019-02-20T21:58:37.583Z,19.03
2019-02-20T22:01:21.304Z,18.23
2019-02-20T22:04:27.678Z,18.12
2019-02-20T22:07:17.399Z,18.67
2019-02-20T22:09:57.915Z,18.87
2019-02-20T22:12:55.275Z,16.93
2019-02-20T22:15:35.532Z,15.75
2019-02-20T22:18:07.186Z,16.25
2019-02-20T22:21:07.487Z,16.57
2019-02-20T22:23:48.152Z,15.93
2019-02-20T22:26:37.650Z,14.80
2019-02-20T22:29:18.007Z,15.53
2019-02-20T22:32:11.043Z,14.80
2019-02-20T22:34:51.186Z,15.00
2019-02-20T22:37:31.987Z,15.45
2019-02-20T22:40:06.442Z,15.43
2019-02-20T22:42:59.522Z,15.38
2019-02-20T22:45:33.918Z,14.98
2019-02-20T22:48:35.403Z,15.08
2019-02-20T22:51:23.697Z,15.30
2019-02-20T22:54:16.643Z,15.35
2019-02-20T22:56:56.924Z,15.18
2019-02-20T22:59:37.111Z,14.63
2019-02-20T23:02:28.323Z,15.30
2019-02-20T23:05:12.358Z,15.35
2019-02-20T23:07:55.904Z,15.53
2019-02-20T23:10:27.665Z,15.65
2019-02-20T23:13:05.397Z,15.45
2019-02-20T23:15:33.807Z,15.95
2019-02-20T23:18:02.206Z,16.00
2019-02-20T23:20:30.580Z,17.50
2019-02-20T23:22:58.996Z,16.27
2019-02-20T23:25:27.383Z,15.98
2019-02-20T23:27:58.837Z,15.58
2019-02-20T23:30:27.247Z,16.65
2019-02-20T23:32:55.646Z,16.27
2019-02-20T23:35:24.026Z,16.12
2019-02-20T23:37:52.459Z,16.12
2019-02-20T23:40:20.808Z,16.62
2019-02-20T23:42:49.330Z,15.15
2019-02-20T23:45:17.796Z,14.03
2019-02-20T23:47:46.208Z,13.90
2019-02-20T23:50:14.582Z,14.70
2019-02-20T23:52:42.958Z,15.15
2019-02-20T23:55:11.343Z,14.87
2019-02-20T23:57:39.797Z,15.43
